createdAt,value
2022-08-05T00:03:21.755Z,98.10
2022-08-05T00:18:26.390Z,99.90
2022-08-05T00:34:53.480Z,99.90
2022-08-05T00:48:57.998Z,99.90
2022-08-05T01:04:02.781Z,99.90
2022-08-05T01:19:56.967Z,99.90
2022-08-05T01:35:01.962Z,99.90
2022-08-05T01:50:15.415Z,99.90
2022-08-05T02:05:23.354Z,99.90
2022-08-05T02:20:31.573Z,99.90
2022-08-05T02:35:50.942Z,99.90
2022-08-05T02:51:05.161Z,99.90
2022-08-05T03:06:55.330Z,99.90
2022-08-05T03:21:41.648Z,99.90
2022-08-05T03:36:53.650Z,99.90
2022-08-05T03:52:50.308Z,99.90
2022-08-05T04:07:28.500Z,99.90
2022-08-05T04:22:37.458Z,99.90
2022-08-05T04:38:02.451Z,99.90
2022-08-05T04:53:09.818Z,99.90
2022-08-05T05:08:26.613Z,99.90
2022-08-05T05:23:39.000Z,99.90
2022-08-05T05:38:59.569Z,99.90
2022-08-05T05:54:04.678Z,99.90
2022-08-05T06:09:17.593Z,99.90
2022-08-05T06:24:31.125Z,99.90
2022-08-05T06:39:35.703Z,99.90
2022-08-05T06:54:41.441Z,99.90
2022-08-05T07:09:45.818Z,99.90
2022-08-05T07:25:23.191Z,99.90
2022-08-05T07:40:33.131Z,99.90
2022-08-05T07:56:04.834Z,99.90
2022-08-05T08:11:02.215Z,99.90
2022-08-05T08:26:06.891Z,99.90
2022-08-05T08:41:15.317Z,99.90
2022-08-05T08:56:23.565Z,99.90
2022-08-05T09:11:53.430Z,99.90
2022-08-05T09:26:59.680Z,99.40
2022-08-05T09:42:07.721Z,99.90
2022-08-05T09:57:23.525Z,99.20
2022-08-05T10:12:33.666Z,98.50
2022-08-05T10:28:12.822Z,97.90
2022-08-05T10:43:12.857Z,96.10
2022-08-05T10:58:18.010Z,94.80
2022-08-05T11:13:57.860Z,93.10
2022-08-05T11:29:11.450Z,91.50
2022-08-05T11:44:21.767Z,90.20
2022-08-05T11:59:49.710Z,87.10
2022-08-05T12:14:55.065Z,86.70
2022-08-05T12:30:03.336Z,82.30
2022-08-05T12:45:09.843Z,76.70
2022-08-05T13:02:03.859Z,78.60
2022-08-05T13:15:52.008Z,72.00
2022-08-05T13:30:57.200Z,76.80
2022-08-05T13:46:01.810Z,73.30
2022-08-05T14:01:08.638Z,72.50
2022-08-05T14:16:16.990Z,66.20
2022-08-05T14:32:03.805Z,61.50
2022-08-05T14:46:48.041Z,57.50
2022-08-05T15:01:53.776Z,55.60
2022-08-05T15:16:58.379Z,45.50
2022-08-05T15:32:05.893Z,51.20
2022-08-05T15:47:12.726Z,49.10
2022-08-05T16:02:25.217Z,46.50
2022-08-05T16:17:33.176Z,49.40
2022-08-05T16:32:37.657Z,49.60
2022-08-05T16:47:53.628Z,51.10
2022-08-05T17:03:00.048Z,50.00
2022-08-05T17:18:04.670Z,50.10
2022-08-05T17:33:09.126Z,50.00
2022-08-05T17:48:13.636Z,50.70
2022-08-05T18:18:48.056Z,50.20
2022-08-05T18:33:54.911Z,49.20
2022-08-05T18:49:23.888Z,50.20
2022-08-05T19:04:35.192Z,46.50
2022-08-05T19:19:59.522Z,46.30
2022-08-05T19:35:06.490Z,47.90
2022-08-05T19:50:12.109Z,46.90
2022-08-05T20:05:24.534Z,47.80
2022-08-05T20:20:29.345Z,48.50
2022-08-05T20:35:33.739Z,48.70
2022-08-05T20:50:45.554Z,50.50
2022-08-05T21:05:54.564Z,49.60
2022-08-05T21:20:59.943Z,49.50
2022-08-05T21:36:05.156Z,49.30
2022-08-05T21:51:09.661Z,50.20
2022-08-05T22:06:35.671Z,50.40
2022-08-05T22:21:44.255Z,50.40
2022-08-05T22:36:53.706Z,50.40
2022-08-05T22:52:06.643Z,51.20
2022-08-05T23:07:16.952Z,52.70
2022-08-05T23:22:27.079Z,52.20
2022-08-05T23:37:36.420Z,53.30
2022-08-05T23:52:50.576Z,53.90
